createdAt,value
2019-04-05T00:01:54.362Z,5.42
2019-04-05T00:04:23.336Z,5.44
2019-04-05T00:06:52.327Z,5.40
2019-04-05T00:09:21.136Z,5.45
2019-04-05T00:11:50.181Z,5.45
2019-04-05T00:14:19.092Z,5.41
2019-04-05T00:16:48.004Z,5.44
2019-04-05T00:19:17.058Z,5.42
2019-04-05T00:21:45.970Z,5.47
2019-04-05T00:24:14.864Z,5.33
2019-04-05T00:26:43.847Z,5.46
2019-04-05T00:29:12.825Z,5.39
2019-04-05T00:31:41.646Z,5.37
2019-04-05T00:34:10.521Z,5.33
2019-04-05T00:36:39.334Z,5.23
2019-04-05T00:39:10.058Z,5.14
2019-04-05T00:41:39.265Z,5.01
2019-04-05T00:44:08.187Z,4.93
2019-04-05T00:46:37.299Z,4.89
2019-04-05T00:49:06.200Z,4.90
2019-04-05T00:51:35.509Z,4.89
2019-04-05T00:54:04.520Z,4.90
2019-04-05T00:56:33.420Z,4.92
2019-04-05T00:59:02.347Z,4.92
2019-04-05T01:01:31.639Z,5.05
2019-04-05T01:04:00.576Z,4.92
2019-04-05T01:06:29.592Z,4.98
2019-04-05T01:08:58.533Z,4.87
2019-04-05T01:11:27.586Z,4.84
2019-04-05T01:13:56.776Z,4.86
2019-04-05T01:16:25.750Z,4.86
2019-04-05T01:18:54.684Z,4.85
2019-04-05T01:21:25.142Z,4.87
2019-04-05T01:23:56.359Z,4.98
2019-04-05T01:26:25.582Z,4.96
2019-04-05T01:28:54.514Z,5.09
2019-04-05T01:31:23.623Z,5.05
2019-04-05T01:33:52.525Z,4.94
2019-04-05T01:36:21.458Z,4.97
2019-04-05T01:38:50.390Z,4.97
2019-04-05T01:41:19.552Z,4.92
2019-04-05T01:43:48.544Z,4.99
2019-04-05T01:46:17.459Z,5.06
2019-04-05T01:48:46.262Z,5.25
2019-04-05T01:51:15.679Z,5.39
2019-04-05T01:53:44.598Z,5.30
2019-04-05T01:56:13.478Z,5.30
2019-04-05T01:58:42.266Z,5.36
2019-04-05T02:01:11.262Z,5.24
2019-04-05T02:03:40.142Z,5.35
2019-04-05T02:06:09.137Z,5.27
2019-04-05T02:08:38.345Z,5.32
2019-04-05T02:11:07.660Z,5.31
2019-04-05T02:13:36.598Z,5.34
2019-04-05T02:16:06.831Z,5.40
2019-04-05T02:18:35.898Z,5.27
2019-04-05T02:21:04.975Z,5.29
2019-04-05T02:23:33.927Z,5.28
2019-04-05T02:26:02.925Z,5.21
2019-04-05T02:28:31.838Z,5.17
2019-04-05T02:31:00.646Z,5.18
2019-04-05T02:33:29.575Z,5.25
2019-04-05T02:35:58.569Z,5.19
2019-04-05T02:38:27.510Z,5.11
2019-04-05T02:40:59.145Z,5.17
2019-04-05T02:43:31.639Z,5.12
2019-04-05T02:46:01.136Z,5.13
2019-04-05T02:48:33.380Z,5.09
2019-04-05T02:51:04.147Z,5.04
2019-04-05T02:53:35.376Z,5.09
2019-04-05T02:56:05.447Z,4.99
2019-04-05T02:58:34.777Z,4.99
2019-04-05T03:01:03.881Z,4.97
2019-04-05T03:03:32.857Z,4.97
2019-04-05T03:06:02.228Z,5.01
2019-04-05T03:08:31.229Z,5.02
2019-04-05T03:11:07.400Z,5.08
2019-04-05T03:13:51.353Z,5.04
2019-04-05T03:16:39.214Z,5.02
2019-04-05T03:19:03.232Z,5.03
2019-04-05T03:21:34.789Z,5.02
2019-04-05T03:24:05.324Z,5.05
2019-04-05T03:26:37.270Z,5.09
2019-04-05T03:29:09.100Z,5.10
2019-04-05T03:31:38.698Z,5.11
2019-04-05T03:34:08.880Z,5.11
2019-04-05T03:36:39.109Z,5.14
2019-04-05T03:39:10.248Z,5.09
2019-04-05T03:41:39.562Z,5.10
2019-04-05T03:44:09.837Z,5.11
2019-04-05T03:46:54.778Z,5.09
2019-04-05T03:49:10.418Z,5.13
2019-04-05T03:51:39.907Z,5.02
2019-04-05T03:54:08.819Z,5.00
2019-04-05T03:56:38.466Z,5.03
2019-04-05T03:59:07.795Z,5.01
2019-04-05T04:01:37.422Z,5.06
2019-04-05T04:04:06.493Z,5.12
2019-04-05T04:06:35.571Z,5.06
2019-04-05T04:09:05.388Z,5.06
2019-04-05T04:11:34.560Z,5.05
2019-04-05T04:14:04.380Z,5.03
2019-04-05T04:16:33.717Z,5.06
2019-04-05T04:19:03.318Z,5.04
2019-04-05T04:21:42.555Z,5.04
2019-04-05T04:24:11.621Z,5.07
2019-04-05T04:26:41.605Z,5.09
2019-04-05T04:29:10.575Z,5.14
2019-04-05T04:31:39.627Z,5.23
2019-04-05T04:34:09.058Z,5.24
2019-04-05T04:36:38.033Z,5.31
2019-04-05T04:39:07.231Z,5.28
2019-04-05T04:41:36.777Z,5.27
2019-04-05T04:44:06.031Z,5.26
2019-04-05T04:46:34.891Z,5.35
2019-04-05T04:49:03.991Z,5.35
2019-04-05T04:51:33.785Z,5.44
2019-04-05T04:54:03.089Z,5.37
2019-04-05T04:56:32.377Z,5.30
2019-04-05T04:59:01.346Z,5.21
2019-04-05T05:01:30.428Z,5.31
2019-04-05T05:03:59.669Z,5.20
2019-04-05T05:06:30.128Z,5.38
2019-04-05T05:08:59.754Z,5.25
2019-04-05T05:11:29.154Z,5.24
2019-04-05T05:13:58.326Z,5.19
2019-04-05T05:16:27.365Z,5.23
2019-04-05T05:18:56.440Z,5.17
2019-04-05T05:21:25.882Z,5.24
2019-04-05T05:23:54.896Z,5.26
2019-04-05T05:26:24.143Z,5.24
2019-04-05T05:28:53.127Z,5.22
2019-04-05T05:31:22.198Z,5.22
2019-04-05T05:33:51.280Z,5.22
2019-04-05T05:36:20.769Z,5.26
2019-04-05T05:38:50.039Z,5.22
2019-04-05T05:41:19.041Z,5.27
2019-04-05T05:43:48.057Z,5.27
2019-04-05T05:46:17.009Z,5.21
2019-04-05T05:48:46.074Z,5.26
2019-04-05T05:51:15.542Z,5.16
2019-04-05T05:53:44.739Z,5.45
2019-04-05T05:56:13.747Z,5.55
2019-04-05T05:58:42.633Z,5.62
2019-04-05T06:01:11.517Z,5.78
2019-04-05T06:03:40.427Z,5.82
2019-04-05T06:06:09.342Z,5.77
2019-04-05T06:08:38.229Z,5.72
2019-04-05T06:11:07.226Z,5.75
2019-04-05T06:13:36.204Z,5.97
2019-04-05T06:16:05.399Z,6.00
2019-04-05T06:18:34.255Z,6.15
2019-04-05T06:21:03.586Z,6.01
2019-04-05T06:23:34.067Z,5.92
2019-04-05T06:26:03.356Z,5.96
2019-04-05T06:28:32.335Z,5.96
2019-04-05T06:31:01.376Z,6.01
2019-04-05T06:33:31.716Z,6.12
2019-04-05T06:36:00.936Z,6.10
2019-04-05T06:38:29.810Z,6.12
2019-04-05T06:40:59.364Z,6.25
2019-04-05T06:43:28.392Z,6.34
2019-04-05T06:45:57.339Z,6.35
2019-04-05T06:48:29.303Z,6.44
2019-04-05T06:50:57.122Z,6.51
2019-04-05T06:53:25.907Z,6.53
2019-04-05T06:55:54.755Z,6.54
2019-04-05T06:59:50.540Z,6.56
2019-04-05T07:00:57.182Z,6.70
2019-04-05T07:03:25.090Z,6.69
2019-04-05T07:05:54.064Z,6.80
2019-04-05T07:08:22.992Z,6.66
2019-04-05T07:10:51.951Z,6.68
2019-04-05T07:13:20.932Z,6.74
2019-04-05T07:15:49.892Z,6.75
2019-04-05T07:18:31.613Z,6.81
2019-04-05T07:20:49.465Z,6.95
2019-04-05T07:23:18.333Z,7.04
2019-04-05T07:25:47.242Z,7.05
2019-04-05T07:28:16.216Z,7.24
2019-04-05T07:30:45.089Z,7.47
2019-04-05T07:33:14.268Z,7.43
2019-04-05T07:35:43.169Z,7.35
2019-04-05T07:38:12.055Z,7.22
2019-04-05T07:40:41.002Z,7.22
2019-04-05T07:43:09.803Z,7.15
2019-04-05T07:45:38.708Z,7.07
2019-04-05T07:48:07.500Z,7.32
2019-04-05T07:50:36.503Z,7.37
2019-04-05T07:53:05.467Z,7.30
2019-04-05T07:55:34.450Z,7.45
2019-04-05T07:58:03.392Z,7.68
2019-04-05T08:00:47.607Z,7.70
2019-04-05T08:03:16.647Z,7.46
2019-04-05T08:05:46.057Z,7.65
2019-04-05T08:08:20.105Z,7.72
2019-04-05T08:10:49.375Z,7.84
2019-04-05T08:13:18.862Z,7.86
2019-04-05T08:15:47.755Z,8.19
2019-04-05T08:18:16.788Z,8.30
2019-04-05T08:20:45.653Z,8.24
2019-04-05T08:23:14.636Z,8.38
2019-04-05T08:25:43.668Z,8.56
2019-04-05T08:28:12.514Z,8.56
2019-04-05T08:30:41.492Z,8.82
2019-04-05T08:33:10.408Z,8.96
2019-04-05T08:35:39.304Z,9.00
2019-04-05T08:38:08.229Z,8.74
2019-04-05T08:40:37.256Z,8.84
2019-04-05T08:43:06.154Z,8.96
2019-04-05T08:45:35.188Z,9.00
2019-04-05T08:48:04.237Z,8.88
2019-04-05T08:50:33.224Z,8.92
2019-04-05T08:53:02.063Z,9.10
2019-04-05T08:55:31.026Z,9.19
2019-04-05T08:58:00.003Z,9.35
2019-04-05T09:00:28.933Z,9.13
2019-04-05T09:02:57.991Z,9.24
2019-04-05T09:05:27.379Z,9.20
2019-04-05T09:07:56.236Z,9.16
2019-04-05T09:10:25.233Z,9.23
2019-04-05T09:12:54.093Z,9.24
2019-04-05T09:15:22.997Z,9.20
2019-04-05T09:17:51.876Z,8.97
2019-04-05T09:20:20.866Z,8.81
2019-04-05T09:22:49.668Z,9.14
2019-04-05T09:34:31.673Z,9.32
2019-04-05T09:37:00.594Z,9.42
2019-04-05T09:54:15.925Z,9.08
2019-04-05T09:56:44.849Z,9.15
2019-04-05T09:59:13.720Z,9.14
2019-04-05T10:01:42.830Z,9.36
2019-04-05T10:04:11.681Z,8.96
2019-04-05T10:06:40.608Z,8.78
2019-04-05T10:09:09.669Z,8.86
2019-04-05T10:11:38.746Z,8.96
2019-04-05T10:14:07.582Z,8.91
2019-04-05T10:16:36.460Z,8.92
2019-04-05T10:19:05.538Z,8.95
2019-04-05T10:21:34.670Z,9.00
2019-04-05T10:24:04.717Z,8.98
2019-04-05T10:26:33.487Z,9.09
2019-04-05T10:29:02.735Z,8.90
2019-04-05T10:31:31.543Z,8.91
2019-04-05T10:34:00.350Z,9.00
2019-04-05T10:36:29.201Z,9.16
2019-04-05T10:38:58.167Z,9.18
2019-04-05T10:41:27.037Z,9.04
2019-04-05T10:43:58.386Z,9.13
2019-04-05T10:46:26.726Z,9.28
2019-04-05T10:48:55.627Z,9.43
2019-04-05T10:51:24.605Z,9.27
2019-04-05T10:53:53.556Z,9.43
2019-04-05T10:56:22.533Z,9.47
2019-04-05T10:58:51.455Z,9.21
2019-04-05T11:01:20.441Z,9.09
2019-04-05T11:03:49.279Z,9.08
2019-04-05T11:06:18.242Z,9.38
2019-04-05T11:08:47.162Z,9.49
2019-04-05T11:11:15.980Z,9.52
2019-04-05T11:13:44.831Z,9.69
2019-04-05T11:16:13.708Z,9.60
2019-04-05T11:18:44.995Z,9.85
2019-04-05T11:21:13.336Z,9.92
2019-04-05T11:23:42.341Z,9.85
2019-04-05T11:26:11.248Z,9.97
2019-04-05T11:28:40.125Z,9.81
2019-04-05T11:31:09.351Z,9.68
2019-04-05T11:33:38.247Z,9.74
2019-04-05T11:36:07.798Z,9.92
2019-04-05T11:38:36.997Z,9.77
2019-04-05T11:41:06.584Z,9.79
2019-04-05T11:43:37.362Z,10.08
2019-04-05T11:46:06.425Z,10.25
2019-04-05T11:52:16.523Z,9.70
2019-04-05T12:02:50.257Z,9.37
2019-04-05T12:05:20.346Z,9.12
2019-04-05T12:07:50.077Z,9.15
2019-04-05T12:10:19.640Z,9.33
2019-04-05T12:12:48.620Z,9.67
2019-04-05T12:15:17.571Z,9.67
2019-04-05T12:17:46.564Z,9.53
2019-04-05T12:20:16.121Z,9.54
2019-04-05T12:22:44.986Z,9.51
2019-04-05T12:25:13.870Z,9.46
2019-04-05T12:27:42.757Z,9.39
2019-04-05T12:30:14.176Z,9.76
2019-04-05T12:32:43.143Z,9.74
2019-04-05T12:35:12.271Z,9.69
2019-04-05T12:37:50.206Z,9.87
2019-04-05T12:40:14.719Z,9.71
2019-04-05T12:42:43.504Z,9.66
2019-04-05T12:45:15.325Z,9.75
2019-04-05T12:47:45.707Z,9.81
2019-04-05T12:50:15.465Z,9.84
2019-04-05T12:52:44.512Z,9.84
2019-04-05T12:55:13.570Z,9.77
2019-04-05T12:57:42.601Z,9.72
2019-04-05T13:00:14.667Z,9.77
2019-04-05T13:02:43.734Z,9.77
2019-04-05T13:05:13.477Z,9.75
2019-04-05T13:07:42.565Z,9.71
2019-04-05T13:10:12.457Z,9.57
2019-04-05T13:12:41.427Z,9.60
2019-04-05T13:15:16.577Z,9.52
2019-04-05T13:17:41.196Z,9.67
2019-04-05T13:20:10.550Z,9.46
2019-04-05T13:22:39.457Z,9.42
2019-04-05T13:25:10.673Z,9.51
2019-04-05T13:27:41.304Z,9.45
2019-04-05T13:30:10.448Z,9.56
2019-04-05T13:32:39.334Z,9.62
2019-04-05T13:35:08.943Z,9.41
2019-04-05T13:37:37.926Z,9.56
2019-04-05T13:40:08.089Z,9.46
2019-04-05T13:42:37.008Z,9.58
2019-04-05T13:45:06.399Z,9.66
2019-04-05T13:47:37.967Z,9.37
2019-04-05T13:50:11.018Z,9.31
2019-04-05T13:52:41.191Z,9.53
2019-04-05T13:55:11.316Z,9.53
2019-04-05T13:57:40.970Z,9.63
2019-04-05T14:00:12.033Z,9.65
2019-04-05T14:02:41.008Z,9.62
2019-04-05T14:05:10.208Z,9.63
2019-04-05T14:07:39.122Z,9.58
2019-04-05T14:10:12.359Z,9.59
2019-04-05T14:12:40.305Z,9.68
2019-04-05T14:15:11.238Z,9.95
2019-04-05T14:17:43.906Z,9.96
2019-04-05T14:20:12.095Z,9.93
2019-04-05T14:22:40.909Z,9.99
2019-04-05T14:25:10.265Z,10.08
2019-04-05T14:27:39.151Z,10.17
2019-04-05T14:30:08.427Z,10.05
2019-04-05T14:32:37.430Z,10.03
2019-04-05T14:35:08.026Z,9.93
2019-04-05T14:37:37.364Z,10.06
2019-04-05T14:40:06.755Z,10.09
2019-04-05T14:42:35.633Z,9.96
2019-04-05T14:45:05.413Z,9.88
2019-04-05T14:47:34.287Z,9.88
2019-04-05T14:50:03.231Z,10.08
2019-04-05T14:52:32.098Z,10.07
2019-04-05T14:55:01.739Z,10.10
2019-04-05T14:57:30.600Z,10.18
2019-04-05T14:59:59.497Z,10.23
2019-04-05T15:02:28.385Z,10.08
2019-04-05T15:04:57.462Z,9.92
2019-04-05T15:07:26.401Z,9.75
2019-04-05T15:09:55.761Z,9.66
2019-04-05T15:12:28.586Z,9.67
2019-04-05T15:14:55.289Z,9.71
2019-04-05T15:17:24.177Z,9.72
2019-04-05T15:19:52.979Z,9.65
2019-04-05T15:22:21.845Z,9.55
2019-04-05T15:24:50.677Z,9.52
2019-04-05T15:27:21.713Z,9.54
2019-04-05T15:29:50.390Z,9.64
2019-04-05T15:32:19.444Z,9.49
2019-04-05T15:34:48.296Z,9.45
2019-04-05T15:37:17.181Z,9.29
2019-04-05T15:39:46.152Z,9.24
2019-04-05T15:42:15.079Z,9.16
2019-04-05T15:44:44.109Z,9.18
2019-04-05T15:47:13.769Z,9.22
2019-04-05T15:49:42.826Z,9.41
2019-04-05T15:52:18.504Z,9.34
2019-04-05T15:54:43.256Z,9.16
2019-04-05T15:57:12.730Z,9.36
2019-04-05T15:59:41.699Z,9.43
2019-04-05T16:02:10.492Z,9.35
2019-04-05T16:04:39.430Z,9.24
2019-04-05T16:07:08.424Z,9.24
2019-04-05T16:09:37.431Z,9.34
2019-04-05T16:12:06.884Z,9.31
2019-04-05T16:14:35.785Z,9.40
2019-04-05T16:17:04.946Z,9.32
2019-04-05T16:19:33.808Z,9.33
2019-04-05T16:22:02.727Z,9.19
2019-04-05T16:24:31.901Z,9.07
2019-04-05T16:27:00.848Z,8.96
2019-04-05T16:29:29.824Z,9.09
2019-04-05T16:31:58.844Z,9.17
2019-04-05T16:34:27.737Z,9.13
2019-04-05T16:36:56.538Z,9.06
2019-04-05T16:39:25.512Z,8.90
2019-04-05T16:41:54.451Z,8.89
2019-04-05T16:44:23.276Z,8.92
2019-04-05T16:46:52.150Z,8.82
2019-04-05T16:49:21.003Z,8.90
2019-04-05T16:51:49.987Z,8.92
2019-04-05T16:54:18.810Z,8.75
2019-04-05T16:56:47.741Z,8.78
2019-04-05T16:59:16.742Z,8.68
2019-04-05T17:01:45.667Z,8.74
2019-04-05T17:04:14.507Z,8.75
2019-04-05T17:06:43.346Z,8.64
2019-04-05T17:09:12.289Z,8.68
2019-04-05T17:11:42.463Z,8.70
2019-04-05T17:14:11.373Z,8.67
2019-04-05T17:16:40.365Z,8.54
2019-04-05T17:19:09.233Z,8.45
2019-04-05T17:21:38.172Z,8.47
2019-04-05T17:24:07.067Z,8.40
2019-04-05T17:26:35.975Z,8.32
2019-04-05T17:29:05.143Z,8.34
2019-04-05T17:31:34.041Z,8.33
2019-04-05T17:34:03.004Z,8.39
2019-04-05T17:36:31.914Z,8.24
2019-04-05T17:39:00.828Z,8.14
2019-04-05T17:41:29.782Z,8.11
2019-04-05T17:43:58.768Z,8.10
2019-04-05T17:46:27.688Z,8.09
2019-04-05T17:48:56.576Z,8.03
2019-04-05T17:51:25.577Z,7.87
2019-04-05T17:53:54.426Z,7.88
2019-04-05T17:56:23.548Z,7.85
2019-04-05T17:58:53.721Z,7.80
2019-04-05T18:01:22.659Z,7.88
2019-04-05T18:03:52.056Z,7.68
2019-04-05T18:06:21.012Z,7.73
2019-04-05T18:08:49.958Z,7.68
2019-04-05T18:11:18.771Z,7.70
2019-04-05T18:13:48.120Z,7.63
2019-04-05T18:16:16.919Z,7.53
2019-04-05T18:18:45.827Z,7.51
2019-04-05T18:21:14.910Z,7.50
2019-04-05T18:23:43.727Z,7.53
2019-04-05T18:26:12.663Z,7.52
2019-04-05T18:28:41.493Z,7.60
2019-04-05T18:31:10.428Z,7.59
2019-04-05T18:33:39.455Z,7.56
2019-04-05T18:36:08.702Z,7.64
2019-04-05T18:38:37.556Z,7.55
2019-04-05T18:41:06.586Z,7.56
2019-04-05T18:43:35.721Z,7.53
2019-04-05T18:46:04.905Z,7.52
2019-04-05T18:48:33.903Z,7.53
2019-04-05T18:51:02.763Z,7.50
2019-04-05T18:53:37.466Z,7.49
2019-04-05T18:56:02.345Z,7.54
2019-04-05T18:58:31.133Z,7.45
2019-04-05T19:01:00.132Z,7.51
2019-04-05T19:03:29.113Z,7.52
2019-04-05T19:05:58.208Z,7.48
2019-04-05T19:08:39.110Z,7.44
2019-04-05T19:10:57.834Z,7.44
2019-04-05T19:13:26.835Z,7.49
2019-04-05T19:15:55.808Z,7.45
2019-04-05T19:18:24.855Z,7.41
2019-04-05T19:20:54.013Z,7.43
2019-04-05T19:23:22.819Z,7.53
2019-04-05T19:25:51.658Z,7.46
2019-04-05T19:28:20.587Z,7.42
2019-04-05T19:50:55.402Z,7.44
2019-04-05T19:53:24.700Z,7.35
2019-04-05T19:55:53.573Z,7.31
2019-04-05T19:58:22.477Z,7.33
2019-04-05T20:00:51.359Z,7.32
2019-04-05T20:03:20.156Z,7.38
2019-04-05T20:05:49.147Z,7.37
2019-04-05T20:08:18.064Z,7.32
2019-04-05T20:10:47.110Z,7.25
2019-04-05T20:13:15.981Z,7.34
2019-04-05T20:15:44.746Z,7.34
2019-04-05T20:18:13.712Z,7.40
2019-04-05T20:20:42.543Z,7.43
2019-04-05T20:23:11.423Z,7.55
2019-04-05T20:25:40.293Z,7.41
2019-04-05T20:28:09.241Z,7.43
2019-04-05T20:30:38.134Z,7.43
2019-04-05T20:33:07.061Z,7.40
2019-04-05T20:35:36.182Z,7.37
2019-04-05T20:38:05.187Z,7.36
2019-04-05T20:40:34.047Z,7.38
2019-04-05T20:43:03.082Z,7.34
2019-04-05T20:45:31.935Z,7.35
2019-04-05T20:48:00.706Z,7.36
2019-04-05T20:50:29.614Z,7.40
2019-04-05T20:52:58.455Z,7.48
2019-04-05T20:55:27.482Z,7.47
2019-04-05T20:57:56.256Z,7.47
2019-04-05T21:00:25.092Z,7.45
2019-04-05T21:02:53.896Z,7.54
2019-04-05T21:05:25.483Z,7.54
2019-04-05T21:07:53.333Z,7.61
2019-04-05T21:10:22.216Z,7.62
2019-04-05T21:12:51.026Z,7.57
2019-04-05T21:15:19.899Z,7.54
2019-04-05T21:17:48.797Z,7.59
2019-04-05T21:20:17.964Z,7.64
2019-04-05T21:22:46.855Z,7.59
2019-04-05T21:25:15.809Z,7.56
2019-04-05T21:27:44.690Z,7.54
2019-04-05T21:30:13.977Z,7.55
2019-04-05T21:32:42.945Z,7.55
2019-04-05T21:35:11.952Z,7.49
2019-04-05T21:37:40.903Z,7.41
2019-04-05T21:40:10.107Z,7.42
2019-04-05T21:42:39.062Z,7.38
2019-04-05T21:45:08.130Z,7.33
2019-04-05T21:47:37.093Z,7.15
2019-04-05T21:50:06.577Z,7.31
2019-04-05T21:52:35.368Z,7.27
2019-04-05T21:55:04.410Z,7.26
2019-04-05T21:57:33.206Z,7.27
2019-04-05T22:00:02.106Z,7.28
2019-04-05T22:02:31.070Z,7.31
2019-04-05T22:05:01.326Z,7.36
2019-04-05T22:07:30.396Z,7.42
2019-04-05T22:09:59.327Z,7.42
2019-04-05T22:12:28.318Z,7.38
2019-04-05T22:14:57.220Z,7.40
2019-04-05T22:17:26.145Z,7.38
2019-04-05T22:19:55.126Z,7.49
2019-04-05T22:22:23.916Z,7.53
2019-04-05T22:24:59.201Z,7.50
2019-04-05T22:27:23.682Z,7.46
2019-04-05T22:29:52.638Z,7.51
2019-04-05T22:32:21.533Z,7.56
2019-04-05T22:34:50.486Z,7.55
2019-04-05T22:37:19.437Z,7.51
2019-04-05T22:39:48.442Z,7.53
2019-04-05T22:42:17.232Z,7.46
2019-04-05T22:44:46.111Z,7.46
2019-04-05T22:47:14.978Z,7.49
2019-04-05T22:49:43.861Z,7.51
2019-04-05T22:52:12.669Z,7.59
2019-04-05T22:54:41.587Z,7.46
2019-04-05T22:57:10.698Z,7.34
2019-04-05T22:59:39.578Z,7.29
2019-04-05T23:02:08.546Z,7.26
2019-04-05T23:04:37.460Z,7.22
2019-04-05T23:07:06.272Z,7.24
2019-04-05T23:09:35.071Z,7.18
2019-04-05T23:12:03.930Z,7.21
2019-04-05T23:14:33.042Z,7.16
2019-04-05T23:17:02.084Z,7.24
2019-04-05T23:19:30.981Z,7.25
2019-04-05T23:22:01.018Z,7.25
2019-04-05T23:24:30.137Z,7.25
2019-04-05T23:26:58.961Z,7.20
2019-04-05T23:29:28.018Z,7.20
2019-04-05T23:31:56.862Z,7.22
2019-04-05T23:34:25.814Z,7.20
2019-04-05T23:36:54.653Z,7.38
2019-04-05T23:39:23.629Z,7.27
2019-04-05T23:41:52.571Z,7.22
2019-04-05T23:44:21.442Z,7.24
2019-04-05T23:46:52.601Z,7.20
2019-04-05T23:49:20.859Z,7.18
2019-04-05T23:51:49.646Z,7.17
2019-04-05T23:54:18.455Z,7.14
2019-04-05T23:56:47.390Z,7.07
2019-04-05T23:59:16.301Z,7.07
